Main page
METAR-TAF:

METAR-TAF

Airports :

Almería, Spain

Almería Airport

latitude: 36-51N, longitude: 002-23W, elevation: 15 m

Current weather observation

The report was made 23 minutes ago, at 09:30 UTC
Wind 3 kt from the Southwest, varying between South and West
Temperature 21°C
Humidity 73%
Pressure 1023 hPa
Visibility 10 km or more
Few clouds at a height of 1000 ft

METAR: LEAM 220930Z 22003KT 180V260 9999 FEW010 21/16 Q1023

Time: 11:53 (09:53 UTC)

Forecast

The report was made 1 hour and 53 minutes ago, at 08:00 UTC
Forecast valid from 22 at 09 UTC to 23 at 09 UTC
Wind 2 kt from variable directions
Visibility 10 km or more
Few clouds at a height of 3000 ft
Becoming
from 22 at 11 UTC to 22 at 13 UTC
Wind 12 kt from the East
Becoming
from 22 at 20 UTC to 22 at 22 UTC
Wind 4 kt from the North/Northeast

TAF: LEAM 220800Z 2209/2309 VRB02KT 9999 FEW030 TX27/2215Z TN16/2306Z BECMG 2211/2213 10012KT BECMG 2220/2222 02004KT

Weather observations and forecasts of more than 4000 airports (METAR and TAF reports).

The available stations are represented by yellow and red dots on the map.

Hover mouse over dot to see the name of the station.

Then click to see weather observations and forecasts.

To change the map : click on the green buttons with a black cross to zoom in, on the green button with a dash to zoom out, or on the green arrows for adjacent maps.


METAR-TAF: